sensor_id;sensor_type;location;lat;lon;timestamp;P1;durP1;ratioP1;P2;durP2;ratioP2
20322;SDS011;10319;52.206;20.996;2023-12-20T00:36:27;17.60;;;5.90;;
20322;SDS011;10319;52.206;20.996;2023-12-20T00:38:59;15.83;;;5.40;;
20322;SDS011;10319;52.206;20.996;2023-12-20T00:41:32;18.73;;;5.97;;
20322;SDS011;10319;52.206;20.996;2023-12-20T00:44:09;17.73;;;5.73;;
20322;SDS011;10319;52.206;20.996;2023-12-20T00:46:58;14.97;;;5.40;;
20322;SDS011;10319;52.206;20.996;2023-12-20T00:55:32;15.63;;;5.00;;
20322;SDS011;10319;52.206;20.996;2023-12-20T00:58:00;15.17;;;5.13;;
20322;SDS011;10319;52.206;20.996;2023-12-20T01:00:27;15.63;;;5.47;;
20322;SDS011;10319;52.206;20.996;2023-12-20T01:02:52;15.40;;;5.33;;
20322;SDS011;10319;52.206;20.996;2023-12-20T01:05:18;14.80;;;4.97;;
20322;SDS011;10319;52.206;20.996;2023-12-20T01:07:44;15.37;;;5.40;;
20322;SDS011;10319;52.206;20.996;2023-12-20T01:10:10;16.57;;;5.63;;
20322;SDS011;10319;52.206;20.996;2023-12-20T01:12:36;15.40;;;4.80;;
20322;SDS011;10319;52.206;20.996;2023-12-20T01:15:02;17.90;;;5.37;;
20322;SDS011;10319;52.206;20.996;2023-12-20T01:17:30;15.03;;;5.43;;
20322;SDS011;10319;52.206;20.996;2023-12-20T01:20:02;14.20;;;4.70;;
20322;SDS011;10319;52.206;20.996;2023-12-20T01:22:45;16.67;;;5.40;;
20322;SDS011;10319;52.206;20.996;2023-12-20T01:28:03;14.67;;;4.73;;
20322;SDS011;10319;52.206;20.996;2023-12-20T01:34:01;15.77;;;5.23;;
20322;SDS011;10319;52.206;20.996;2023-12-20T01:36:44;13.63;;;4.47;;
20322;SDS011;10319;52.206;20.996;2023-12-20T01:42:46;15.07;;;4.60;;
20322;SDS011;10319;52.206;20.996;2023-12-20T01:45:36;13.67;;;4.60;;
20322;SDS011;10319;52.206;20.996;2023-12-20T01:48:24;15.73;;;4.97;;
20322;SDS011;10319;52.206;20.996;2023-12-20T02:00:42;14.83;;;4.57;;
20322;SDS011;10319;52.206;20.996;2023-12-20T02:12:25;13.60;;;4.40;;
20322;SDS011;10319;52.206;20.996;2023-12-20T02:18:32;14.80;;;4.53;;
20322;SDS011;10319;52.206;20.996;2023-12-20T02:21:17;14.87;;;4.80;;
20322;SDS011;10319;52.206;20.996;2023-12-20T02:24:22;13.23;;;4.10;;
20322;SDS011;10319;52.206;20.996;2023-12-20T02:30:20;13.23;;;4.20;;
20322;SDS011;10319;52.206;20.996;2023-12-20T02:36:21;15.27;;;4.60;;
20322;SDS011;10319;52.206;20.996;2023-12-20T02:39:02;13.10;;;4.10;;
20322;SDS011;10319;52.206;20.996;2023-12-20T02:41:52;15.13;;;4.53;;
20322;SDS011;10319;52.206;20.996;2023-12-20T02:44:18;14.20;;;3.63;;
20322;SDS011;10319;52.206;20.996;2023-12-20T02:49:34;11.40;;;3.07;;
20322;SDS011;10319;52.206;20.996;2023-12-20T02:52:15;12.87;;;3.20;;
20322;SDS011;10319;52.206;20.996;2023-12-20T03:07:03;9.70;;;2.57;;
20322;SDS011;10319;52.206;20.996;2023-12-20T03:25:18;8.27;;;2.30;;
20322;SDS011;10319;52.206;20.996;2023-12-20T03:31:34;8.07;;;2.00;;
20322;SDS011;10319;52.206;20.996;2023-12-20T06:06:49;12.83;;;4.23;;
20322;SDS011;10319;52.206;20.996;2023-12-20T06:09:28;13.73;;;4.40;;
20322;SDS011;10319;52.206;20.996;2023-12-20T06:26:13;13.33;;;3.67;;
20322;SDS011;10319;52.206;20.996;2023-12-20T06:29:20;13.87;;;4.47;;
20322;SDS011;10319;52.206;20.996;2023-12-20T06:35:09;12.90;;;4.07;;
20322;SDS011;10319;52.206;20.996;2023-12-20T06:40:20;14.50;;;5.23;;
20322;SDS011;10319;52.206;20.996;2023-12-20T06:42:46;13.87;;;5.20;;
20322;SDS011;10319;52.206;20.996;2023-12-20T06:45:11;14.27;;;5.93;;
20322;SDS011;10319;52.206;20.996;2023-12-20T06:47:39;14.77;;;5.80;;
20322;SDS011;10319;52.206;20.996;2023-12-20T06:50:28;14.73;;;5.90;;
20322;SDS011;10319;52.206;20.996;2023-12-20T06:55:35;14.27;;;5.67;;
20322;SDS011;10319;52.206;20.996;2023-12-20T06:58:09;15.63;;;5.80;;
20322;SDS011;10319;52.206;20.996;2023-12-20T07:13:45;13.77;;;5.50;;
20322;SDS011;10319;52.206;20.996;2023-12-20T07:23:08;15.03;;;6.30;;
20322;SDS011;10319;52.206;20.996;2023-12-20T07:28:22;13.80;;;4.97;;
20322;SDS011;10319;52.206;20.996;2023-12-20T08:01:49;13.03;;;4.13;;
20322;SDS011;10319;52.206;20.996;2023-12-20T08:04:22;12.23;;;3.90;;
20322;SDS011;10319;52.206;20.996;2023-12-20T08:06:53;12.80;;;3.83;;
20322;SDS011;10319;52.206;20.996;2023-12-20T08:12:23;12.53;;;4.43;;
20322;SDS011;10319;52.206;20.996;2023-12-20T08:14:48;12.47;;;3.70;;
20322;SDS011;10319;52.206;20.996;2023-12-20T08:17:16;11.43;;;3.57;;
20322;SDS011;10319;52.206;20.996;2023-12-20T08:19:43;10.10;;;3.10;;
20322;SDS011;10319;52.206;20.996;2023-12-20T08:22:09;12.73;;;3.60;;
20322;SDS011;10319;52.206;20.996;2023-12-20T08:24:38;11.13;;;3.40;;
20322;SDS011;10319;52.206;20.996;2023-12-20T08:27:04;11.67;;;3.87;;
20322;SDS011;10319;52.206;20.996;2023-12-20T08:29:31;11.97;;;3.67;;
20322;SDS011;10319;52.206;20.996;2023-12-20T08:31:57;12.43;;;4.17;;
20322;SDS011;10319;52.206;20.996;2023-12-20T08:34:22;12.83;;;4.00;;
20322;SDS011;10319;52.206;20.996;2023-12-20T08:36:51;12.87;;;4.27;;
20322;SDS011;10319;52.206;20.996;2023-12-20T08:39:16;12.70;;;3.83;;
20322;SDS011;10319;52.206;20.996;2023-12-20T08:41:42;15.03;;;4.40;;
20322;SDS011;10319;52.206;20.996;2023-12-20T08:44:07;13.53;;;4.00;;
20322;SDS011;10319;52.206;20.996;2023-12-20T08:46:32;12.37;;;4.07;;
20322;SDS011;10319;52.206;20.996;2023-12-20T08:48:57;11.87;;;3.93;;
20322;SDS011;10319;52.206;20.996;2023-12-20T08:51:23;12.63;;;4.13;;
20322;SDS011;10319;52.206;20.996;2023-12-20T08:53:50;12.80;;;4.10;;
20322;SDS011;10319;52.206;20.996;2023-12-20T08:56:24;14.30;;;4.33;;
20322;SDS011;10319;52.206;20.996;2023-12-20T08:58:56;13.37;;;4.60;;
20322;SDS011;10319;52.206;20.996;2023-12-20T09:01:22;13.70;;;4.33;;
20322;SDS011;10319;52.206;20.996;2023-12-20T09:03:48;12.80;;;3.27;;
20322;SDS011;10319;52.206;20.996;2023-12-20T09:06:14;13.27;;;3.20;;
20322;SDS011;10319;52.206;20.996;2023-12-20T09:08:55;11.37;;;3.47;;
20322;SDS011;10319;52.206;20.996;2023-12-20T09:11:21;11.67;;;3.50;;
20322;SDS011;10319;52.206;20.996;2023-12-20T09:13:56;11.23;;;3.30;;
20322;SDS011;10319;52.206;20.996;2023-12-20T09:16:45;10.57;;;3.07;;
20322;SDS011;10319;52.206;20.996;2023-12-20T09:19:10;12.40;;;3.60;;
20322;SDS011;10319;52.206;20.996;2023-12-20T09:21:36;11.73;;;3.47;;
20322;SDS011;10319;52.206;20.996;2023-12-20T09:24:01;11.10;;;3.40;;
20322;SDS011;10319;52.206;20.996;2023-12-20T09:26:26;10.60;;;3.10;;
20322;SDS011;10319;52.206;20.996;2023-12-20T09:28:52;11.47;;;3.10;;
20322;SDS011;10319;52.206;20.996;2023-12-20T09:31:17;11.73;;;3.33;;
20322;SDS011;10319;52.206;20.996;2023-12-20T09:33:43;10.67;;;3.07;;
20322;SDS011;10319;52.206;20.996;2023-12-20T09:36:08;10.93;;;3.40;;
20322;SDS011;10319;52.206;20.996;2023-12-20T09:38:33;11.37;;;3.00;;
20322;SDS011;10319;52.206;20.996;2023-12-20T09:40:59;10.37;;;3.00;;
20322;SDS011;10319;52.206;20.996;2023-12-20T09:43:27;10.90;;;2.83;;
20322;SDS011;10319;52.206;20.996;2023-12-20T09:45:54;9.93;;;2.90;;
20322;SDS011;10319;52.206;20.996;2023-12-20T09:48:28;11.07;;;3.03;;
20322;SDS011;10319;52.206;20.996;2023-12-20T09:50:56;11.43;;;3.43;;
20322;SDS011;10319;52.206;20.996;2023-12-20T09:53:22;10.97;;;3.10;;
20322;SDS011;10319;52.206;20.996;2023-12-20T09:55:48;9.17;;;2.70;;
20322;SDS011;10319;52.206;20.996;2023-12-20T09:58:14;11.03;;;3.33;;
20322;SDS011;10319;52.206;20.996;2023-12-20T10:00:40;10.70;;;3.17;;
20322;SDS011;10319;52.206;20.996;2023-12-20T10:03:06;10.43;;;3.20;;
20322;SDS011;10319;52.206;20.996;2023-12-20T10:05:33;11.30;;;3.50;;
20322;SDS011;10319;52.206;20.996;2023-12-20T10:08:00;11.30;;;3.37;;
20322;SDS011;10319;52.206;20.996;2023-12-20T10:10:25;10.17;;;3.30;;
20322;SDS011;10319;52.206;20.996;2023-12-20T10:15:49;10.30;;;3.00;;
20322;SDS011;10319;52.206;20.996;2023-12-20T10:18:17;10.77;;;3.47;;
20322;SDS011;10319;52.206;20.996;2023-12-20T10:20:42;12.03;;;3.73;;
20322;SDS011;10319;52.206;20.996;2023-12-20T10:23:08;11.80;;;3.73;;
20322;SDS011;10319;52.206;20.996;2023-12-20T10:25:33;10.73;;;3.37;;
20322;SDS011;10319;52.206;20.996;2023-12-20T10:28:11;11.40;;;3.30;;
20322;SDS011;10319;52.206;20.996;2023-12-20T10:30:37;11.50;;;3.40;;
20322;SDS011;10319;52.206;20.996;2023-12-20T10:33:03;11.23;;;3.50;;
20322;SDS011;10319;52.206;20.996;2023-12-20T10:35:30;11.80;;;3.53;;
20322;SDS011;10319;52.206;20.996;2023-12-20T10:37:56;13.07;;;3.73;;
20322;SDS011;10319;52.206;20.996;2023-12-20T10:40:27;11.93;;;3.70;;
20322;SDS011;10319;52.206;20.996;2023-12-20T10:42:54;12.10;;;3.40;;
20322;SDS011;10319;52.206;20.996;2023-12-20T10:45:20;11.23;;;3.23;;
20322;SDS011;10319;52.206;20.996;2023-12-20T10:47:49;12.23;;;3.60;;
20322;SDS011;10319;52.206;20.996;2023-12-20T10:50:14;13.73;;;3.53;;
20322;SDS011;10319;52.206;20.996;2023-12-20T10:52:40;12.70;;;3.50;;
20322;SDS011;10319;52.206;20.996;2023-12-20T10:55:06;13.43;;;3.80;;
20322;SDS011;10319;52.206;20.996;2023-12-20T10:57:31;13.30;;;3.80;;
20322;SDS011;10319;52.206;20.996;2023-12-20T10:59:58;12.00;;;3.40;;
20322;SDS011;10319;52.206;20.996;2023-12-20T11:02:25;11.60;;;3.73;;
20322;SDS011;10319;52.206;20.996;2023-12-20T11:05:13;11.43;;;3.20;;
20322;SDS011;10319;52.206;20.996;2023-12-20T11:07:55;12.10;;;3.90;;
20322;SDS011;10319;52.206;20.996;2023-12-20T11:10:31;12.53;;;3.70;;
20322;SDS011;10319;52.206;20.996;2023-12-20T11:15:24;11.70;;;3.50;;
20322;SDS011;10319;52.206;20.996;2023-12-20T11:17:57;13.07;;;4.00;;
20322;SDS011;10319;52.206;20.996;2023-12-20T11:20:24;13.20;;;3.63;;
20322;SDS011;10319;52.206;20.996;2023-12-20T11:22:55;12.33;;;3.60;;
20322;SDS011;10319;52.206;20.996;2023-12-20T11:25:21;11.83;;;3.53;;
20322;SDS011;10319;52.206;20.996;2023-12-20T11:28:06;12.23;;;3.70;;
20322;SDS011;10319;52.206;20.996;2023-12-20T11:30:40;10.93;;;3.50;;
20322;SDS011;10319;52.206;20.996;2023-12-20T11:33:05;11.47;;;3.30;;
20322;SDS011;10319;52.206;20.996;2023-12-20T11:35:32;11.00;;;3.40;;
20322;SDS011;10319;52.206;20.996;2023-12-20T11:37:57;11.17;;;3.13;;
20322;SDS011;10319;52.206;20.996;2023-12-20T11:40:23;14.10;;;3.77;;
20322;SDS011;10319;52.206;20.996;2023-12-20T11:42:49;10.43;;;3.00;;
20322;SDS011;10319;52.206;20.996;2023-12-20T11:45:15;10.47;;;3.07;;
20322;SDS011;10319;52.206;20.996;2023-12-20T11:47:41;12.30;;;3.57;;
20322;SDS011;10319;52.206;20.996;2023-12-20T11:50:07;9.47;;;2.80;;
20322;SDS011;10319;52.206;20.996;2023-12-20T11:52:32;11.93;;;3.37;;
20322;SDS011;10319;52.206;20.996;2023-12-20T11:54:57;10.57;;;3.03;;
20322;SDS011;10319;52.206;20.996;2023-12-20T11:57:23;11.53;;;3.30;;
20322;SDS011;10319;52.206;20.996;2023-12-20T11:59:48;11.37;;;3.00;;
20322;SDS011;10319;52.206;20.996;2023-12-20T12:02:13;10.57;;;3.30;;
20322;SDS011;10319;52.206;20.996;2023-12-20T12:04:41;14.03;;;3.80;;
20322;SDS011;10319;52.206;20.996;2023-12-20T12:07:06;12.63;;;3.83;;
20322;SDS011;10319;52.206;20.996;2023-12-20T12:09:32;13.30;;;3.90;;
20322;SDS011;10319;52.206;20.996;2023-12-20T12:11:57;12.93;;;3.53;;
20322;SDS011;10319;52.206;20.996;2023-12-20T12:14:22;12.47;;;3.80;;
20322;SDS011;10319;52.206;20.996;2023-12-20T12:16:48;13.10;;;4.33;;
20322;SDS011;10319;52.206;20.996;2023-12-20T12:19:24;12.30;;;3.60;;
20322;SDS011;10319;52.206;20.996;2023-12-20T12:21:50;12.23;;;3.97;;
20322;SDS011;10319;52.206;20.996;2023-12-20T12:24:19;13.57;;;4.07;;
20322;SDS011;10319;52.206;20.996;2023-12-20T12:26:49;10.80;;;3.27;;
20322;SDS011;10319;52.206;20.996;2023-12-20T12:29:14;13.27;;;3.77;;
20322;SDS011;10319;52.206;20.996;2023-12-20T12:31:39;11.33;;;3.43;;
20322;SDS011;10319;52.206;20.996;2023-12-20T12:34:05;11.70;;;3.63;;
20322;SDS011;10319;52.206;20.996;2023-12-20T12:36:30;12.00;;;3.63;;
20322;SDS011;10319;52.206;20.996;2023-12-20T12:38:56;10.07;;;3.03;;
20322;SDS011;10319;52.206;20.996;2023-12-20T12:41:22;11.80;;;3.30;;
20322;SDS011;10319;52.206;20.996;2023-12-20T12:43:47;13.00;;;3.97;;
20322;SDS011;10319;52.206;20.996;2023-12-20T12:46:12;14.67;;;4.00;;
20322;SDS011;10319;52.206;20.996;2023-12-20T12:48:38;12.17;;;3.73;;
20322;SDS011;10319;52.206;20.996;2023-12-20T12:51:03;12.57;;;4.07;;
20322;SDS011;10319;52.206;20.996;2023-12-20T12:53:29;13.00;;;4.57;;
20322;SDS011;10319;52.206;20.996;2023-12-20T12:56:00;13.93;;;4.43;;
20322;SDS011;10319;52.206;20.996;2023-12-20T12:58:29;13.90;;;4.37;;
20322;SDS011;10319;52.206;20.996;2023-12-20T13:04:41;14.00;;;4.70;;
20322;SDS011;10319;52.206;20.996;2023-12-20T13:07:06;13.37;;;4.07;;
20322;SDS011;10319;52.206;20.996;2023-12-20T13:09:35;14.07;;;4.53;;
20322;SDS011;10319;52.206;20.996;2023-12-20T13:15:04;12.23;;;4.03;;
20322;SDS011;10319;52.206;20.996;2023-12-20T13:17:35;12.80;;;4.03;;
20322;SDS011;10319;52.206;20.996;2023-12-20T13:20:12;13.07;;;4.10;;
20322;SDS011;10319;52.206;20.996;2023-12-20T13:26:08;13.50;;;3.90;;
20322;SDS011;10319;52.206;20.996;2023-12-20T13:32:23;14.57;;;4.40;;
20322;SDS011;10319;52.206;20.996;2023-12-20T13:38:09;13.10;;;4.33;;
20322;SDS011;10319;52.206;20.996;2023-12-20T14:20:14;13.73;;;3.93;;
20322;SDS011;10319;52.206;20.996;2023-12-20T14:22:40;13.83;;;4.50;;
20322;SDS011;10319;52.206;20.996;2023-12-20T14:25:10;13.97;;;4.40;;
20322;SDS011;10319;52.206;20.996;2023-12-20T14:27:38;13.57;;;3.93;;
20322;SDS011;10319;52.206;20.996;2023-12-20T14:30:03;14.97;;;4.00;;
20322;SDS011;10319;52.206;20.996;2023-12-20T14:32:31;12.07;;;3.53;;
20322;SDS011;10319;52.206;20.996;2023-12-20T14:34:57;13.03;;;4.17;;
20322;SDS011;10319;52.206;20.996;2023-12-20T14:43:09;14.73;;;4.37;;
20322;SDS011;10319;52.206;20.996;2023-12-20T14:45:56;12.63;;;3.60;;
20322;SDS011;10319;52.206;20.996;2023-12-20T14:51:24;12.10;;;3.27;;
20322;SDS011;10319;52.206;20.996;2023-12-20T14:53:50;11.80;;;3.27;;
20322;SDS011;10319;52.206;20.996;2023-12-20T14:56:15;11.03;;;2.80;;
20322;SDS011;10319;52.206;20.996;2023-12-20T15:43:49;11.43;;;2.53;;
20322;SDS011;10319;52.206;20.996;2023-12-20T15:46:53;15.43;;;3.10;;
20322;SDS011;10319;52.206;20.996;2023-12-20T15:55:28;13.67;;;3.30;;
20322;SDS011;10319;52.206;20.996;2023-12-20T15:57:55;13.87;;;3.30;;
20322;SDS011;10319;52.206;20.996;2023-12-20T16:00:22;13.27;;;3.33;;
20322;SDS011;10319;52.206;20.996;2023-12-20T16:02:47;16.20;;;3.20;;
20322;SDS011;10319;52.206;20.996;2023-12-20T16:05:13;12.33;;;3.20;;
20322;SDS011;10319;52.206;20.996;2023-12-20T16:07:39;11.13;;;2.93;;
20322;SDS011;10319;52.206;20.996;2023-12-20T16:10:06;15.50;;;3.37;;
20322;SDS011;10319;52.206;20.996;2023-12-20T16:12:32;12.30;;;2.60;;
20322;SDS011;10319;52.206;20.996;2023-12-20T16:14:57;13.27;;;3.20;;
20322;SDS011;10319;52.206;20.996;2023-12-20T16:17:23;12.07;;;3.20;;
20322;SDS011;10319;52.206;20.996;2023-12-20T16:19:55;12.47;;;3.23;;
20322;SDS011;10319;52.206;20.996;2023-12-20T16:22:21;12.37;;;3.00;;
20322;SDS011;10319;52.206;20.996;2023-12-20T16:30:56;15.27;;;3.10;;
20322;SDS011;10319;52.206;20.996;2023-12-20T16:33:21;10.80;;;2.63;;
20322;SDS011;10319;52.206;20.996;2023-12-20T16:35:47;14.37;;;2.77;;
20322;SDS011;10319;52.206;20.996;2023-12-20T16:38:12;12.53;;;2.70;;
20322;SDS011;10319;52.206;20.996;2023-12-20T16:40:37;14.03;;;2.97;;
20322;SDS011;10319;52.206;20.996;2023-12-20T16:43:02;11.77;;;2.80;;
20322;SDS011;10319;52.206;20.996;2023-12-20T16:45:28;13.50;;;3.07;;
20322;SDS011;10319;52.206;20.996;2023-12-20T16:47:53;12.47;;;2.97;;
20322;SDS011;10319;52.206;20.996;2023-12-20T16:50:19;12.87;;;3.10;;
20322;SDS011;10319;52.206;20.996;2023-12-20T16:52:44;14.93;;;2.80;;
20322;SDS011;10319;52.206;20.996;2023-12-20T16:55:15;15.57;;;3.00;;
20322;SDS011;10319;52.206;20.996;2023-12-20T16:57:40;12.33;;;3.23;;
20322;SDS011;10319;52.206;20.996;2023-12-20T17:00:06;13.97;;;2.90;;
20322;SDS011;10319;52.206;20.996;2023-12-20T17:02:32;13.07;;;3.17;;
20322;SDS011;10319;52.206;20.996;2023-12-20T17:04:57;15.00;;;3.17;;
20322;SDS011;10319;52.206;20.996;2023-12-20T17:07:24;12.67;;;2.80;;
20322;SDS011;10319;52.206;20.996;2023-12-20T17:09:50;16.43;;;3.43;;
20322;SDS011;10319;52.206;20.996;2023-12-20T17:12:16;14.47;;;2.87;;
20322;SDS011;10319;52.206;20.996;2023-12-20T17:14:41;13.00;;;3.00;;
20322;SDS011;10319;52.206;20.996;2023-12-20T17:17:06;14.37;;;3.07;;
20322;SDS011;10319;52.206;20.996;2023-12-20T17:19:33;12.47;;;2.90;;
20322;SDS011;10319;52.206;20.996;2023-12-20T17:21:58;12.33;;;3.00;;
20322;SDS011;10319;52.206;20.996;2023-12-20T17:24:24;12.77;;;2.87;;
20322;SDS011;10319;52.206;20.996;2023-12-20T17:26:49;12.67;;;2.70;;
20322;SDS011;10319;52.206;20.996;2023-12-20T17:29:15;13.93;;;3.13;;
20322;SDS011;10319;52.206;20.996;2023-12-20T17:59:24;13.93;;;2.80;;
20322;SDS011;10319;52.206;20.996;2023-12-20T18:01:52;14.57;;;2.90;;
20322;SDS011;10319;52.206;20.996;2023-12-20T18:04:20;15.07;;;3.17;;
20322;SDS011;10319;52.206;20.996;2023-12-20T18:13:13;12.27;;;2.67;;
20322;SDS011;10319;52.206;20.996;2023-12-20T18:15:40;12.27;;;3.00;;
20322;SDS011;10319;52.206;20.996;2023-12-20T18:18:08;12.97;;;2.60;;
20322;SDS011;10319;52.206;20.996;2023-12-20T18:20:54;11.70;;;2.53;;
20322;SDS011;10319;52.206;20.996;2023-12-20T18:23:46;14.67;;;2.80;;
20322;SDS011;10319;52.206;20.996;2023-12-20T18:29:31;12.20;;;2.57;;
20322;SDS011;10319;52.206;20.996;2023-12-20T18:32:05;11.87;;;2.60;;
20322;SDS011;10319;52.206;20.996;2023-12-20T18:34:30;12.83;;;2.80;;
20322;SDS011;10319;52.206;20.996;2023-12-20T18:36:58;11.40;;;2.23;;
20322;SDS011;10319;52.206;20.996;2023-12-20T18:39:24;12.73;;;2.60;;
20322;SDS011;10319;52.206;20.996;2023-12-20T18:41:57;12.90;;;2.60;;
20322;SDS011;10319;52.206;20.996;2023-12-20T18:44:22;13.17;;;2.40;;
20322;SDS011;10319;52.206;20.996;2023-12-20T18:47:27;12.87;;;2.50;;
20322;SDS011;10319;52.206;20.996;2023-12-20T18:53:31;12.87;;;2.90;;
20322;SDS011;10319;52.206;20.996;2023-12-20T18:55:57;12.10;;;2.80;;
20322;SDS011;10319;52.206;20.996;2023-12-20T18:58:22;14.20;;;2.57;;
20322;SDS011;10319;52.206;20.996;2023-12-20T19:00:49;12.70;;;2.60;;
20322;SDS011;10319;52.206;20.996;2023-12-20T19:03:14;17.17;;;2.67;;
20322;SDS011;10319;52.206;20.996;2023-12-20T19:08:43;14.70;;;2.83;;
20322;SDS011;10319;52.206;20.996;2023-12-20T19:11:09;14.67;;;2.90;;
20322;SDS011;10319;52.206;20.996;2023-12-20T19:13:53;12.47;;;2.73;;
20322;SDS011;10319;52.206;20.996;2023-12-20T19:19:37;11.67;;;2.60;;
20322;SDS011;10319;52.206;20.996;2023-12-20T19:25:26;7.90;;;1.63;;
20322;SDS011;10319;52.206;20.996;2023-12-20T19:27:52;9.50;;;1.70;;
20322;SDS011;10319;52.206;20.996;2023-12-20T19:30:17;7.73;;;1.57;;
20322;SDS011;10319;52.206;20.996;2023-12-20T19:32:44;6.93;;;1.30;;
20322;SDS011;10319;52.206;20.996;2023-12-20T19:35:11;4.93;;;1.10;;
20322;SDS011;10319;52.206;20.996;2023-12-20T19:37:36;5.10;;;0.97;;
20322;SDS011;10319;52.206;20.996;2023-12-20T19:40:03;4.07;;;0.80;;
20322;SDS011;10319;52.206;20.996;2023-12-20T19:42:34;2.87;;;0.60;;
20322;SDS011;10319;52.206;20.996;2023-12-20T19:45:04;4.13;;;0.67;;
20322;SDS011;10319;52.206;20.996;2023-12-20T19:47:33;3.87;;;0.80;;
20322;SDS011;10319;52.206;20.996;2023-12-20T19:50:06;5.37;;;1.07;;
20322;SDS011;10319;52.206;20.996;2023-12-20T20:02:19;4.60;;;0.73;;
20322;SDS011;10319;52.206;20.996;2023-12-20T20:05:01;3.40;;;0.80;;
20322;SDS011;10319;52.206;20.996;2023-12-20T20:07:47;3.23;;;0.80;;
20322;SDS011;10319;52.206;20.996;2023-12-20T20:10:12;4.53;;;1.00;;
20322;SDS011;10319;52.206;20.996;2023-12-20T20:12:38;4.63;;;1.07;;
20322;SDS011;10319;52.206;20.996;2023-12-20T20:15:03;6.13;;;1.53;;
20322;SDS011;10319;52.206;20.996;2023-12-20T20:17:28;5.20;;;1.33;;
20322;SDS011;10319;52.206;20.996;2023-12-20T20:19:54;3.67;;;1.00;;
20322;SDS011;10319;52.206;20.996;2023-12-20T20:22:19;5.60;;;1.20;;
20322;SDS011;10319;52.206;20.996;2023-12-20T20:24:46;8.60;;;1.47;;
20322;SDS011;10319;52.206;20.996;2023-12-20T20:27:12;6.27;;;1.30;;
20322;SDS011;10319;52.206;20.996;2023-12-20T20:29:37;7.30;;;1.50;;
20322;SDS011;10319;52.206;20.996;2023-12-20T20:32:02;7.43;;;1.50;;
20322;SDS011;10319;52.206;20.996;2023-12-20T20:34:28;6.87;;;1.10;;
20322;SDS011;10319;52.206;20.996;2023-12-20T20:36:54;4.67;;;1.27;;
20322;SDS011;10319;52.206;20.996;2023-12-20T20:39:19;8.90;;;1.50;;
20322;SDS011;10319;52.206;20.996;2023-12-20T20:41:46;9.80;;;1.50;;
20322;SDS011;10319;52.206;20.996;2023-12-20T20:44:14;7.00;;;1.30;;
20322;SDS011;10319;52.206;20.996;2023-12-20T20:46:58;5.53;;;1.27;;
20322;SDS011;10319;52.206;20.996;2023-12-20T21:08:13;8.40;;;1.60;;
20322;SDS011;10319;52.206;20.996;2023-12-20T21:10:39;7.63;;;1.60;;
20322;SDS011;10319;52.206;20.996;2023-12-20T21:14:04;9.20;;;1.73;;
20322;SDS011;10319;52.206;20.996;2023-12-20T21:32:49;9.47;;;1.93;;
20322;SDS011;10319;52.206;20.996;2023-12-20T21:38:53;8.80;;;1.90;;
20322;SDS011;10319;52.206;20.996;2023-12-20T21:41:18;6.33;;;1.67;;
20322;SDS011;10319;52.206;20.996;2023-12-20T21:43:46;10.87;;;1.80;;
20322;SDS011;10319;52.206;20.996;2023-12-20T21:46:12;10.77;;;2.10;;
20322;SDS011;10319;52.206;20.996;2023-12-20T21:48:37;8.57;;;1.63;;
20322;SDS011;10319;52.206;20.996;2023-12-20T21:51:02;10.67;;;1.80;;
20322;SDS011;10319;52.206;20.996;2023-12-20T21:53:28;9.40;;;1.80;;
20322;SDS011;10319;52.206;20.996;2023-12-20T21:55:54;7.33;;;1.83;;
20322;SDS011;10319;52.206;20.996;2023-12-20T22:01:22;9.67;;;1.97;;
20322;SDS011;10319;52.206;20.996;2023-12-20T22:03:49;9.83;;;1.80;;
20322;SDS011;10319;52.206;20.996;2023-12-20T22:06:14;8.60;;;1.77;;
20322;SDS011;10319;52.206;20.996;2023-12-20T22:08:39;10.33;;;1.80;;
20322;SDS011;10319;52.206;20.996;2023-12-20T22:11:05;10.47;;;1.97;;
20322;SDS011;10319;52.206;20.996;2023-12-20T22:13:36;9.23;;;1.90;;
20322;SDS011;10319;52.206;20.996;2023-12-20T22:16:02;9.53;;;1.83;;
20322;SDS011;10319;52.206;20.996;2023-12-20T22:18:27;10.53;;;1.73;;
20322;SDS011;10319;52.206;20.996;2023-12-20T22:20:52;9.53;;;1.90;;
20322;SDS011;10319;52.206;20.996;2023-12-20T22:23:18;7.90;;;1.80;;
20322;SDS011;10319;52.206;20.996;2023-12-20T22:25:43;8.57;;;1.67;;
20322;SDS011;10319;52.206;20.996;2023-12-20T22:28:09;11.13;;;2.00;;
20322;SDS011;10319;52.206;20.996;2023-12-20T22:30:34;10.67;;;1.70;;
20322;SDS011;10319;52.206;20.996;2023-12-20T22:32:59;8.50;;;1.83;;
20322;SDS011;10319;52.206;20.996;2023-12-20T22:35:26;10.03;;;2.07;;
20322;SDS011;10319;52.206;20.996;2023-12-20T22:37:51;9.63;;;2.00;;
20322;SDS011;10319;52.206;20.996;2023-12-20T22:40:17;10.73;;;1.70;;
20322;SDS011;10319;52.206;20.996;2023-12-20T22:42:42;10.87;;;2.10;;
20322;SDS011;10319;52.206;20.996;2023-12-20T22:45:08;10.83;;;2.40;;
20322;SDS011;10319;52.206;20.996;2023-12-20T22:47:33;9.00;;;1.90;;
20322;SDS011;10319;52.206;20.996;2023-12-20T22:49:58;11.30;;;2.00;;
20322;SDS011;10319;52.206;20.996;2023-12-20T22:52:23;11.40;;;2.07;;
20322;SDS011;10319;52.206;20.996;2023-12-20T22:54:49;13.57;;;2.10;;
20322;SDS011;10319;52.206;20.996;2023-12-20T22:57:15;12.03;;;2.20;;
20322;SDS011;10319;52.206;20.996;2023-12-20T22:59:40;11.07;;;2.10;;
20322;SDS011;10319;52.206;20.996;2023-12-20T23:02:05;9.93;;;1.67;;
20322;SDS011;10319;52.206;20.996;2023-12-20T23:04:32;6.90;;;1.47;;
20322;SDS011;10319;52.206;20.996;2023-12-20T23:07:17;9.10;;;2.00;;
20322;SDS011;10319;52.206;20.996;2023-12-20T23:09:42;11.10;;;2.43;;
20322;SDS011;10319;52.206;20.996;2023-12-20T23:12:08;9.33;;;1.80;;
20322;SDS011;10319;52.206;20.996;2023-12-20T23:14:33;10.50;;;1.90;;
20322;SDS011;10319;52.206;20.996;2023-12-20T23:16:58;10.40;;;2.20;;
20322;SDS011;10319;52.206;20.996;2023-12-20T23:19:24;9.50;;;1.87;;
20322;SDS011;10319;52.206;20.996;2023-12-20T23:21:49;11.27;;;2.07;;
20322;SDS011;10319;52.206;20.996;2023-12-20T23:24:16;10.40;;;2.00;;
20322;SDS011;10319;52.206;20.996;2023-12-20T23:26:41;11.30;;;2.07;;
20322;SDS011;10319;52.206;20.996;2023-12-20T23:29:07;7.87;;;1.70;;
20322;SDS011;10319;52.206;20.996;2023-12-20T23:31:33;9.70;;;1.80;;
20322;SDS011;10319;52.206;20.996;2023-12-20T23:33:58;10.83;;;1.83;;
20322;SDS011;10319;52.206;20.996;2023-12-20T23:36:23;12.27;;;2.10;;
20322;SDS011;10319;52.206;20.996;2023-12-20T23:38:48;12.73;;;2.33;;
20322;SDS011;10319;52.206;20.996;2023-12-20T23:41:14;10.83;;;1.93;;
20322;SDS011;10319;52.206;20.996;2023-12-20T23:43:39;11.67;;;1.83;;
20322;SDS011;10319;52.206;20.996;2023-12-20T23:46:04;12.10;;;2.13;;
20322;SDS011;10319;52.206;20.996;2023-12-20T23:48:30;11.17;;;2.10;;
20322;SDS011;10319;52.206;20.996;2023-12-20T23:50:55;11.47;;;2.17;;
20322;SDS011;10319;52.206;20.996;2023-12-20T23:53:20;9.33;;;1.77;;
20322;SDS011;10319;52.206;20.996;2023-12-20T23:55:45;13.13;;;2.30;;
20322;SDS011;10319;52.206;20.996;2023-12-20T23:58:11;11.27;;;2.23;;
